createdAt,value
2022-12-18T00:00:16.792Z,9.667986
2022-12-18T00:01:16.829Z,9.667996
2022-12-18T00:02:16.810Z,9.667975
2022-12-18T00:03:16.957Z,9.668047
2022-12-18T00:04:16.890Z,9.668040
2022-12-18T00:05:16.762Z,9.668040
2022-12-18T00:06:16.738Z,9.668036
2022-12-18T00:07:16.752Z,9.668072
2022-12-18T00:08:16.744Z,9.668011
2022-12-18T00:09:16.707Z,9.668005
2022-12-18T00:10:16.712Z,9.668017
2022-12-18T00:11:16.717Z,9.668056
2022-12-18T00:13:16.791Z,9.667933
2022-12-18T00:14:16.694Z,9.667975
2022-12-18T00:15:16.697Z,9.667981
2022-12-18T00:16:16.761Z,9.667973
2022-12-18T00:17:16.681Z,9.667963
2022-12-18T00:18:20.410Z,9.668014
2022-12-18T00:19:16.691Z,9.668019
2022-12-18T00:20:16.640Z,9.668027
2022-12-18T00:21:16.628Z,9.668049
2022-12-18T00:22:16.618Z,9.668017
2022-12-18T00:23:16.612Z,9.667966
2022-12-18T00:24:16.622Z,9.667982
2022-12-18T00:25:16.634Z,9.667994
2022-12-18T00:26:16.615Z,9.668021
2022-12-18T00:27:16.604Z,9.668022
2022-12-18T00:28:16.580Z,9.668065
2022-12-18T00:29:16.594Z,9.668070
2022-12-18T00:30:19.996Z,9.668031
2022-12-18T00:31:16.625Z,9.668077
2022-12-18T00:32:16.557Z,9.667957
2022-12-18T00:33:16.561Z,9.667982
2022-12-18T00:34:16.544Z,9.668024
2022-12-18T00:35:17.167Z,9.667935
2022-12-18T00:36:48.709Z,9.667960
2022-12-18T00:37:20.001Z,9.667941
2022-12-18T00:38:17.534Z,9.667886
2022-12-18T00:39:16.532Z,9.667916
2022-12-18T00:40:16.498Z,9.667911
2022-12-18T00:41:16.509Z,9.667889
2022-12-18T00:42:16.526Z,9.667861
2022-12-18T00:43:16.471Z,9.667889
2022-12-18T00:44:16.485Z,9.667880
2022-12-18T00:45:16.464Z,9.667918
2022-12-18T00:46:16.542Z,9.667905
2022-12-18T00:47:16.466Z,9.667949
2022-12-18T00:48:16.448Z,9.667992
2022-12-18T00:49:16.419Z,9.667929
2022-12-18T00:50:16.408Z,9.667952
2022-12-18T00:51:16.428Z,9.668008
2022-12-18T00:52:16.451Z,9.668049
2022-12-18T00:53:16.427Z,9.667985
2022-12-18T00:54:16.387Z,9.667968
2022-12-18T00:55:16.419Z,9.667966
2022-12-18T00:56:16.371Z,9.667993
2022-12-18T00:57:16.405Z,9.668050
2022-12-18T00:58:16.400Z,9.667952
2022-12-18T00:59:16.360Z,9.667975
2022-12-18T01:00:16.353Z,9.667941
2022-12-18T01:01:16.442Z,9.667963
2022-12-18T01:02:16.528Z,9.668009
2022-12-18T01:03:16.461Z,9.667923
2022-12-18T01:04:16.359Z,9.667930
2022-12-18T01:05:16.341Z,9.667997
2022-12-18T01:06:17.338Z,9.667962
2022-12-18T01:07:16.326Z,9.667929
2022-12-18T01:08:16.317Z,9.667911
2022-12-18T01:09:48.185Z,9.667944
2022-12-18T01:10:16.319Z,9.667937
2022-12-18T01:11:16.270Z,9.668000
2022-12-18T01:12:16.253Z,9.668023
2022-12-18T01:13:16.262Z,9.668007
2022-12-18T01:14:16.241Z,9.668001
2022-12-18T01:15:16.244Z,9.668010
2022-12-18T01:16:16.328Z,9.667971
2022-12-18T01:17:16.204Z,9.668022
2022-12-18T01:18:48.171Z,9.667975
2022-12-18T01:19:16.212Z,9.668020
2022-12-18T01:20:16.251Z,9.668015
2022-12-18T01:21:16.192Z,9.668021
2022-12-18T01:22:16.189Z,9.668075
2022-12-18T01:23:16.188Z,9.668024
2022-12-18T01:24:16.224Z,9.668007
2022-12-18T01:25:16.172Z,9.668023
2022-12-18T01:26:16.202Z,9.667985
2022-12-18T01:27:16.190Z,9.667970
2022-12-18T01:28:16.160Z,9.668044
2022-12-18T01:29:16.182Z,9.668033
2022-12-18T01:30:16.147Z,9.668022
2022-12-18T01:31:16.228Z,9.667991
2022-12-18T01:32:16.124Z,9.667979
2022-12-18T01:33:16.119Z,9.667977
2022-12-18T01:34:16.104Z,9.667965
2022-12-18T01:35:16.123Z,9.668009
2022-12-18T01:36:16.087Z,9.668035
2022-12-18T01:37:16.091Z,9.668040
2022-12-18T01:38:16.114Z,9.668060
2022-12-18T01:39:16.089Z,9.668020
2022-12-18T01:40:16.127Z,9.668012
2022-12-18T01:41:16.062Z,9.668026
2022-12-18T01:42:16.062Z,9.668006
2022-12-18T01:43:16.035Z,9.667997
2022-12-18T01:44:16.023Z,9.668025
2022-12-18T01:45:16.059Z,9.667982
2022-12-18T01:46:16.126Z,9.667988
2022-12-18T01:47:16.020Z,9.668030
2022-12-18T01:48:15.999Z,9.668007
2022-12-18T01:49:16.801Z,9.668024
2022-12-18T01:50:15.986Z,9.668030
2022-12-18T01:51:16.009Z,9.668035
2022-12-18T01:52:16.178Z,9.668009
2022-12-18T01:53:15.962Z,9.668015
2022-12-18T01:54:15.943Z,9.667976
2022-12-18T01:55:16.960Z,9.667989
2022-12-18T01:56:15.979Z,9.667978
2022-12-18T01:57:15.958Z,9.667968
2022-12-18T01:58:15.978Z,9.667994
2022-12-18T01:59:15.912Z,9.667976
2022-12-18T02:00:15.907Z,9.667957
2022-12-18T02:01:16.054Z,9.668007
2022-12-18T02:02:15.995Z,9.667988
2022-12-18T02:03:15.982Z,9.667974
2022-12-18T02:04:15.889Z,9.667964
2022-12-18T02:05:15.874Z,9.668010
2022-12-18T02:06:15.877Z,9.667945
2022-12-18T02:07:15.868Z,9.668015
2022-12-18T02:08:15.890Z,9.667978
2022-12-18T02:09:15.838Z,9.667999
2022-12-18T02:10:15.851Z,9.667992
2022-12-18T02:11:15.824Z,9.667885
2022-12-18T02:12:15.840Z,9.667975
2022-12-18T02:13:15.889Z,9.667912
2022-12-18T02:14:15.854Z,9.667988
2022-12-18T02:15:15.818Z,9.667992
2022-12-18T02:16:15.847Z,9.667945
2022-12-18T02:17:15.797Z,9.667871
2022-12-18T02:18:15.795Z,9.667879
2022-12-18T02:19:15.789Z,9.667867
2022-12-18T02:20:15.778Z,9.667843
2022-12-18T02:21:15.786Z,9.667871
2022-12-18T02:22:15.743Z,9.667887
2022-12-18T02:23:15.742Z,9.667912
2022-12-18T02:24:15.757Z,9.667993
2022-12-18T02:25:15.739Z,9.667913
2022-12-18T02:26:15.721Z,9.668066
2022-12-18T02:27:15.746Z,9.667951
2022-12-18T02:28:15.708Z,9.668040
2022-12-18T02:29:15.799Z,9.667999
2022-12-18T02:30:15.696Z,9.668008
2022-12-18T02:31:15.746Z,9.668032
2022-12-18T02:32:15.695Z,9.668000
2022-12-18T02:33:15.673Z,9.668068
2022-12-18T02:34:15.698Z,9.667967
2022-12-18T02:35:15.662Z,9.668015
2022-12-18T02:36:15.676Z,9.668023
2022-12-18T02:37:15.644Z,9.668037
2022-12-18T02:38:15.641Z,9.668040
2022-12-18T02:39:15.627Z,9.667986
2022-12-18T02:40:15.655Z,9.667985
2022-12-18T02:41:15.628Z,9.667948
2022-12-18T02:42:15.633Z,9.668057
2022-12-18T02:43:15.601Z,9.668047
2022-12-18T02:44:15.613Z,9.667966
2022-12-18T02:45:15.677Z,9.668041
2022-12-18T02:46:15.667Z,9.668038
2022-12-18T02:47:16.622Z,9.668041
2022-12-18T02:48:15.574Z,9.668036
2022-12-18T02:49:15.571Z,9.667995
2022-12-18T02:50:47.484Z,9.667965
2022-12-18T02:51:15.559Z,9.667991
2022-12-18T02:52:15.575Z,9.668014
2022-12-18T02:53:15.539Z,9.668010
2022-12-18T02:54:15.543Z,9.667957
2022-12-18T02:55:15.518Z,9.668025
2022-12-18T02:56:15.521Z,9.668011
2022-12-18T02:57:15.520Z,9.667980
2022-12-18T02:58:15.504Z,9.667970
2022-12-18T02:59:15.493Z,9.667966
2022-12-18T03:00:15.508Z,9.668009
2022-12-18T03:01:15.676Z,9.668007
2022-12-18T03:02:15.592Z,9.668004
2022-12-18T03:03:15.500Z,9.668017
2022-12-18T03:04:15.486Z,9.668033
2022-12-18T03:05:15.451Z,9.667999
2022-12-18T03:06:15.457Z,9.667994
2022-12-18T03:07:15.432Z,9.667971
2022-12-18T03:08:15.457Z,9.667984
2022-12-18T03:09:15.435Z,9.668003
2022-12-18T03:10:15.439Z,9.668022
2022-12-18T03:11:15.421Z,9.668017
2022-12-18T03:12:15.403Z,9.668040
2022-12-18T03:13:15.396Z,9.668016
2022-12-18T03:14:15.439Z,9.667988
2022-12-18T03:15:17.760Z,9.667972
2022-12-18T03:16:16.447Z,9.667986
2022-12-18T03:17:15.436Z,9.668025
2022-12-18T03:18:15.366Z,9.668029
2022-12-18T03:19:15.361Z,9.668010
2022-12-18T03:20:15.360Z,9.668020
2022-12-18T03:21:15.358Z,9.668025
2022-12-18T03:22:15.323Z,9.668015
2022-12-18T03:23:15.349Z,9.668030
2022-12-18T03:24:15.323Z,9.667989
2022-12-18T03:25:15.352Z,9.667984
2022-12-18T03:26:15.313Z,9.668089
2022-12-18T03:27:15.316Z,9.668063
2022-12-18T03:28:15.299Z,9.668079
2022-12-18T03:29:15.286Z,9.668053
2022-12-18T03:30:15.275Z,9.667970
2022-12-18T03:31:15.324Z,9.667969
2022-12-18T03:32:15.309Z,9.668016
2022-12-18T03:33:15.333Z,9.668003
2022-12-18T03:34:15.249Z,9.668046
2022-12-18T03:35:15.240Z,9.668035
2022-12-18T03:36:15.222Z,9.668002
2022-12-18T03:37:15.231Z,9.668059
2022-12-18T03:38:16.212Z,9.668024
2022-12-18T03:39:15.225Z,9.667962
2022-12-18T03:40:15.210Z,9.668010
2022-12-18T03:41:15.205Z,9.667999
2022-12-18T03:42:15.235Z,9.668011
2022-12-18T03:43:15.184Z,9.667981
2022-12-18T03:44:15.187Z,9.667954
2022-12-18T03:45:15.161Z,9.667993
2022-12-18T03:46:15.229Z,9.667968
2022-12-18T03:47:15.171Z,9.668036
2022-12-18T04:04:51.555Z,9.667866
2022-12-18T04:05:51.530Z,9.667892
2022-12-18T04:06:51.519Z,9.667910
2022-12-18T04:07:51.517Z,9.667889
2022-12-18T04:08:51.490Z,9.667839
2022-12-18T04:09:51.535Z,9.667991
2022-12-18T04:10:51.495Z,9.668001
2022-12-18T04:11:51.498Z,9.667974
2022-12-18T04:12:51.461Z,9.667982
2022-12-18T04:13:51.569Z,9.667968
2022-12-18T04:14:51.453Z,9.667982
2022-12-18T04:15:51.482Z,9.668026
2022-12-18T04:16:51.471Z,9.668001
2022-12-18T04:17:51.437Z,9.667980
2022-12-18T04:18:51.519Z,9.667953
2022-12-18T04:19:51.471Z,9.668001
2022-12-18T04:20:51.402Z,9.668001
2022-12-18T04:21:51.411Z,9.668040
2022-12-18T04:22:51.411Z,9.668063
2022-12-18T04:23:51.410Z,9.668032
2022-12-18T04:24:51.420Z,9.667956
2022-12-18T04:25:51.396Z,9.668017
2022-12-18T04:26:51.394Z,9.668058
2022-12-18T04:27:51.352Z,9.668074
2022-12-18T04:28:51.350Z,9.667982
2022-12-18T04:29:51.373Z,9.668047
2022-12-18T04:30:51.458Z,9.668000
2022-12-18T04:31:51.336Z,9.667979
2022-12-18T04:32:52.486Z,9.668019
2022-12-18T04:33:53.169Z,9.667978
2022-12-18T04:34:51.409Z,9.668032
2022-12-18T04:35:51.305Z,9.668041
2022-12-18T04:36:51.325Z,9.668103
2022-12-18T04:37:51.280Z,9.668066
2022-12-18T04:38:51.279Z,9.668025
2022-12-18T04:39:51.269Z,9.668019
2022-12-18T04:40:51.283Z,9.667990
2022-12-18T04:41:51.279Z,9.668011
2022-12-18T04:42:51.322Z,9.667996
2022-12-18T04:43:51.267Z,9.668025
2022-12-18T04:44:51.243Z,9.668056
2022-12-18T04:45:51.305Z,9.668023
2022-12-18T04:46:51.334Z,9.668002
2022-12-18T04:47:51.205Z,9.668031
2022-12-18T04:48:51.220Z,9.668057
2022-12-18T04:49:52.081Z,9.668017
2022-12-18T04:50:51.276Z,9.668036
2022-12-18T04:51:52.067Z,9.668030
2022-12-18T04:52:51.218Z,9.667982
2022-12-18T04:53:52.064Z,9.668052
2022-12-18T04:54:51.164Z,9.667987
2022-12-18T04:55:52.057Z,9.668002
2022-12-18T04:56:52.062Z,9.668017
2022-12-18T04:57:51.579Z,9.667986
2022-12-18T04:58:52.065Z,9.668021
2022-12-18T04:59:51.184Z,9.668042
2022-12-18T05:00:52.051Z,9.668076
2022-12-18T05:01:52.137Z,9.668074
2022-12-18T05:02:51.261Z,9.668048
2022-12-18T05:03:51.169Z,9.668031
2022-12-18T05:04:52.067Z,9.668134
2022-12-18T05:05:51.162Z,9.668090
2022-12-18T05:06:52.131Z,9.668081
2022-12-18T05:07:51.066Z,9.668068
2022-12-18T05:08:51.067Z,9.668026
2022-12-18T05:09:51.151Z,9.668009
2022-12-18T05:10:52.070Z,9.668017
2022-12-18T05:11:51.141Z,9.668137
2022-12-18T05:12:51.158Z,9.668061
2022-12-18T05:13:51.107Z,9.668118
2022-12-18T05:14:51.073Z,9.668097
2022-12-18T05:15:52.029Z,9.668087
2022-12-18T05:16:51.481Z,9.668076
2022-12-18T05:17:51.473Z,9.668080
2022-12-18T05:18:51.013Z,9.668076
2022-12-18T05:19:51.114Z,9.668030
2022-12-18T05:20:51.078Z,9.668024
2022-12-18T05:21:51.067Z,9.668035
2022-12-18T05:22:51.130Z,9.668096
2022-12-18T05:23:50.943Z,9.668053
2022-12-18T05:24:51.044Z,9.668025
2022-12-18T05:25:50.969Z,9.668010
2022-12-18T05:26:50.964Z,9.668082
2022-12-18T05:27:50.923Z,9.668097
2022-12-18T05:28:50.917Z,9.668054
2022-12-18T05:29:50.909Z,9.668037
2022-12-18T05:30:50.975Z,9.668087
2022-12-18T05:31:50.989Z,9.668056
2022-12-18T05:32:50.913Z,9.668069
2022-12-18T05:33:50.864Z,9.668096
2022-12-18T05:34:50.885Z,9.668072
2022-12-18T05:35:50.873Z,9.668111
2022-12-18T05:36:50.940Z,9.668009
2022-12-18T05:37:50.855Z,9.668086
2022-12-18T05:38:50.933Z,9.668066
2022-12-18T05:39:50.835Z,9.668097
2022-12-18T05:40:50.823Z,9.667969
2022-12-18T05:41:50.854Z,9.667983
2022-12-18T05:42:50.811Z,9.667957
2022-12-18T05:43:50.803Z,9.667974
2022-12-18T05:44:50.807Z,9.668013
2022-12-18T05:45:50.791Z,9.668038
2022-12-18T05:46:50.867Z,9.667981
2022-12-18T05:47:50.794Z,9.668069
2022-12-18T05:48:50.805Z,9.668023
2022-12-18T05:49:50.765Z,9.668005
2022-12-18T05:50:50.762Z,9.668000
2022-12-18T05:51:50.752Z,9.668067
2022-12-18T05:52:50.752Z,9.668045
2022-12-18T05:53:50.752Z,9.668029
2022-12-18T05:54:51.746Z,9.668066
2022-12-18T05:55:50.727Z,9.668022
2022-12-18T05:56:51.622Z,9.667983
2022-12-18T05:57:50.736Z,9.668015
2022-12-18T05:58:50.718Z,9.668015
2022-12-18T05:59:50.704Z,9.668005
2022-12-18T06:00:50.706Z,9.668000
2022-12-18T06:01:50.752Z,9.667999
2022-12-18T06:02:50.811Z,9.667956
2022-12-18T06:03:50.754Z,9.668022
2022-12-18T06:04:50.665Z,9.668008
2022-12-18T06:05:50.667Z,9.667997
2022-12-18T06:06:50.634Z,9.667954
2022-12-18T06:07:50.770Z,9.667955
2022-12-18T06:08:50.637Z,9.667949
2022-12-18T06:09:51.649Z,9.667993
2022-12-18T06:10:50.807Z,9.668010
2022-12-18T06:11:50.606Z,9.667972
2022-12-18T06:12:50.613Z,9.667994
2022-12-18T06:13:54.759Z,9.668019
2022-12-18T06:14:52.608Z,9.667969
2022-12-18T06:15:50.626Z,9.668003
2022-12-18T06:16:51.575Z,9.667981
2022-12-18T06:17:50.589Z,9.668013
2022-12-18T06:18:50.599Z,9.667932
2022-12-18T06:19:50.614Z,9.667926
2022-12-18T06:20:50.594Z,9.667931
2022-12-18T06:21:50.545Z,9.667949
2022-12-18T06:22:50.550Z,9.667939
2022-12-18T06:23:50.547Z,9.667950
2022-12-18T06:24:50.566Z,9.667965
2022-12-18T06:25:50.518Z,9.667964
2022-12-18T06:26:51.230Z,9.667994
2022-12-18T06:27:50.560Z,9.667984
2022-12-18T06:28:50.513Z,9.667970
2022-12-18T06:29:50.504Z,9.667992
2022-12-18T06:30:50.490Z,9.667990
2022-12-18T06:31:50.514Z,9.667955
2022-12-18T06:32:54.676Z,9.667965
2022-12-18T06:33:52.456Z,9.667948
2022-12-18T06:34:50.455Z,9.667907
2022-12-18T06:36:22.370Z,9.667928
2022-12-18T06:36:50.446Z,9.667925
2022-12-18T06:37:50.431Z,9.667947
2022-12-18T06:38:50.421Z,9.667914
2022-12-18T06:39:50.416Z,9.667956
2022-12-18T06:40:50.409Z,9.667985
2022-12-18T06:41:50.436Z,9.667916
2022-12-18T06:42:50.477Z,9.667940
2022-12-18T06:43:50.390Z,9.667983
2022-12-18T06:44:50.404Z,9.668052
2022-12-18T06:45:50.491Z,9.667980
2022-12-18T06:46:50.415Z,9.668031
2022-12-18T06:47:50.366Z,9.667999
2022-12-18T06:48:50.385Z,9.667986
2022-12-18T06:49:50.350Z,9.668056
2022-12-18T06:50:50.358Z,9.667986
2022-12-18T06:51:50.345Z,9.668019
2022-12-18T06:52:50.350Z,9.667974
2022-12-18T06:53:50.363Z,9.668015
2022-12-18T06:54:51.332Z,9.668023
2022-12-18T06:55:50.311Z,9.668004
2022-12-18T06:56:50.298Z,9.667943
2022-12-18T06:57:50.325Z,9.667991
2022-12-18T06:58:50.392Z,9.667992
2022-12-18T06:59:50.317Z,9.668034
2022-12-18T07:00:50.335Z,9.668005
2022-12-18T07:01:50.601Z,9.667974
2022-12-18T07:02:50.396Z,9.667992
2022-12-18T07:03:50.276Z,9.667945
2022-12-18T07:04:50.275Z,9.667995
2022-12-18T07:05:50.267Z,9.667952
2022-12-18T07:06:50.252Z,9.667968
2022-12-18T07:07:50.249Z,9.667997
2022-12-18T07:08:50.234Z,9.668030
2022-12-18T07:09:50.246Z,9.668025
2022-12-18T07:10:55.791Z,9.668040
2022-12-18T07:11:52.219Z,9.667980
2022-12-18T07:12:50.203Z,9.667999
2022-12-18T07:13:50.196Z,9.667974
2022-12-18T07:14:50.289Z,9.667975
2022-12-18T07:15:50.187Z,9.668041
2022-12-18T07:16:50.254Z,9.668000
2022-12-18T07:17:50.186Z,9.667916
2022-12-18T07:18:50.181Z,9.668000
2022-12-18T07:19:50.267Z,9.668000
2022-12-18T07:20:50.178Z,9.668030
2022-12-18T07:21:50.155Z,9.668016
2022-12-18T07:22:56.020Z,9.668033
2022-12-18T07:23:52.119Z,9.668045
2022-12-18T07:24:50.699Z,9.668025
2022-12-18T07:25:50.126Z,9.668021
2022-12-18T07:26:50.126Z,9.667972
2022-12-18T07:27:50.112Z,9.668007
2022-12-18T07:28:50.141Z,9.668020
2022-12-18T07:29:50.080Z,9.668003
2022-12-18T07:30:50.168Z,9.667978
2022-12-18T07:31:50.211Z,9.668022
2022-12-18T07:32:51.079Z,9.668054
2022-12-18T07:33:50.056Z,9.668019
2022-12-18T07:34:50.060Z,9.668005
2022-12-18T07:35:50.046Z,9.668002
2022-12-18T07:36:50.080Z,9.667994
2022-12-18T07:37:50.041Z,9.668014
2022-12-18T07:38:50.028Z,9.668013
2022-12-18T07:39:50.190Z,9.667994
2022-12-18T07:40:50.031Z,9.667944
2022-12-18T07:41:50.029Z,9.667964
2022-12-18T07:42:50.019Z,9.668029
2022-12-18T07:43:50.014Z,9.667986
2022-12-18T07:44:49.992Z,9.667995
2022-12-18T07:45:50.754Z,9.667978
2022-12-18T07:46:50.076Z,9.668023
2022-12-18T07:47:49.989Z,9.668015
2022-12-18T07:48:50.539Z,9.668006
2022-12-18T07:49:49.984Z,9.668006
2022-12-18T07:50:49.957Z,9.668000
2022-12-18T07:51:49.917Z,9.667998
2022-12-18T07:52:49.957Z,9.667995
2022-12-18T07:53:52.432Z,9.668008
2022-12-18T07:54:49.977Z,9.667996
2022-12-18T07:56:18.404Z,9.668058
2022-12-18T07:56:51.912Z,9.668076
2022-12-18T07:57:51.816Z,9.668049
2022-12-18T07:58:50.892Z,9.668038
2022-12-18T07:59:49.894Z,9.668000
2022-12-18T08:00:49.957Z,9.668013
2022-12-18T08:01:49.999Z,9.668025
2022-12-18T08:02:51.061Z,9.668015
2022-12-18T08:03:50.152Z,9.667989
2022-12-18T08:04:49.908Z,9.668036
2022-12-18T08:05:49.867Z,9.667984
2022-12-18T08:06:49.903Z,9.667970
2022-12-18T08:07:49.837Z,9.667973
2022-12-18T08:08:49.837Z,9.668021
2022-12-18T08:09:49.826Z,9.667980
2022-12-18T08:10:49.816Z,9.667963
2022-12-18T08:11:49.838Z,9.668016
2022-12-18T08:12:49.792Z,9.668048
2022-12-18T08:13:49.795Z,9.668018
2022-12-18T08:14:49.779Z,9.668044
2022-12-18T08:15:49.800Z,9.668026
2022-12-18T08:16:49.868Z,9.668015
2022-12-18T08:17:49.772Z,9.668008
2022-12-18T08:18:49.861Z,9.668003
2022-12-18T08:19:49.748Z,9.668034
2022-12-18T08:20:49.863Z,9.668041
2022-12-18T08:21:49.778Z,9.667997
2022-12-18T08:22:49.733Z,9.668019
2022-12-18T08:23:51.095Z,9.668024
2022-12-18T08:24:49.706Z,9.667989
2022-12-18T08:25:49.737Z,9.667991
2022-12-18T08:27:06.785Z,9.667989
2022-12-18T08:27:51.727Z,9.667997
2022-12-18T08:28:49.686Z,9.668006
2022-12-18T08:29:49.680Z,9.667991
2022-12-18T08:30:49.730Z,9.667987
2022-12-18T08:31:49.687Z,9.667963
2022-12-18T08:32:49.672Z,9.667959
2022-12-18T08:33:49.648Z,9.667978
2022-12-18T08:34:49.747Z,9.668011
2022-12-18T08:35:49.627Z,9.668015
2022-12-18T08:36:49.672Z,9.668001
2022-12-18T08:37:49.633Z,9.667924
2022-12-18T08:38:49.628Z,9.667874
2022-12-18T08:39:52.568Z,9.667885
2022-12-18T08:40:49.617Z,9.667925
2022-12-18T08:41:49.606Z,9.667948
2022-12-18T08:42:49.587Z,9.667971
2022-12-18T08:43:49.613Z,9.667953
2022-12-18T08:44:50.072Z,9.667964
2022-12-18T08:45:49.645Z,9.667984
2022-12-18T08:46:49.605Z,9.667995
2022-12-18T08:47:49.554Z,9.668002
2022-12-18T08:48:49.543Z,9.667977
2022-12-18T08:49:49.618Z,9.667981
2022-12-18T08:50:49.609Z,9.668004
2022-12-18T08:51:49.518Z,9.668006
2022-12-18T08:52:49.530Z,9.667989
2022-12-18T08:53:49.541Z,9.667973
2022-12-18T08:54:49.597Z,9.667984
2022-12-18T08:55:50.475Z,9.667982
2022-12-18T08:56:50.587Z,9.667937
2022-12-18T08:57:50.083Z,9.667963
2022-12-18T08:58:49.505Z,9.667953
2022-12-18T08:59:49.506Z,9.667968
2022-12-18T09:00:49.488Z,9.667976
2022-12-18T09:01:49.588Z,9.667968
2022-12-18T09:02:49.544Z,9.667968
2022-12-18T09:03:49.450Z,9.667943
2022-12-18T09:04:55.428Z,9.667960
2022-12-18T09:05:51.450Z,9.667980
2022-12-18T09:06:54.999Z,9.667988
2022-12-18T09:07:50.501Z,9.667925
2022-12-18T09:08:49.399Z,9.667967
2022-12-18T09:09:49.419Z,9.668009
2022-12-18T09:10:50.181Z,9.667968
2022-12-18T09:11:49.433Z,9.667903
2022-12-18T09:12:49.437Z,9.667958
2022-12-18T09:13:49.365Z,9.668004
2022-12-18T09:14:49.381Z,9.668027
2022-12-18T09:15:49.349Z,9.667978
2022-12-18T09:16:49.400Z,9.667977
2022-12-18T09:17:49.330Z,9.667988
2022-12-18T09:18:49.332Z,9.668022
2022-12-18T09:19:49.321Z,9.668029
2022-12-18T09:20:49.322Z,9.667997
2022-12-18T09:21:49.368Z,9.667966
2022-12-18T09:22:49.325Z,9.667996
2022-12-18T09:23:49.366Z,9.667986
2022-12-18T09:24:49.273Z,9.667899
2022-12-18T09:25:49.314Z,9.668036
2022-12-18T09:26:50.002Z,9.668003
2022-12-18T09:27:49.238Z,9.667936
2022-12-18T09:28:49.258Z,9.668024
2022-12-18T09:29:49.273Z,9.668016
2022-12-18T09:30:49.254Z,9.667888
2022-12-18T09:31:49.216Z,9.667976
2022-12-18T09:32:49.294Z,9.668003
2022-12-18T09:33:49.193Z,9.667934
2022-12-18T09:34:49.207Z,9.667962
2022-12-18T09:35:49.187Z,9.668025
2022-12-18T09:36:49.207Z,9.667994
2022-12-18T09:37:49.186Z,9.668054
2022-12-18T09:38:49.172Z,9.667947
2022-12-18T09:39:49.252Z,9.667996
2022-12-18T09:40:49.146Z,9.668062
2022-12-18T09:41:49.170Z,9.668036
2022-12-18T09:42:49.160Z,9.668023
2022-12-18T09:43:49.126Z,9.668055
2022-12-18T09:44:49.235Z,9.668000
2022-12-18T09:45:49.158Z,9.668048
2022-12-18T09:46:49.113Z,9.668036
2022-12-18T09:47:49.166Z,9.667999
2022-12-18T09:48:49.103Z,9.668053
2022-12-18T09:49:49.085Z,9.668052
2022-12-18T09:50:49.095Z,9.668036
2022-12-18T09:51:49.061Z,9.668030
2022-12-18T09:52:49.087Z,9.668020
2022-12-18T09:53:49.075Z,9.668038
2022-12-18T09:54:49.040Z,9.668012
2022-12-18T09:55:50.769Z,9.668040
2022-12-18T09:56:49.042Z,9.668029
2022-12-18T09:57:49.031Z,9.668025
2022-12-18T09:58:49.037Z,9.668016
2022-12-18T09:59:49.065Z,9.667966
2022-12-18T10:00:49.021Z,9.667970
2022-12-18T10:01:49.744Z,9.668031
2022-12-18T10:02:49.128Z,9.668002
2022-12-18T10:03:48.972Z,9.667982
2022-12-18T10:04:49.146Z,9.667992
2022-12-18T10:05:49.054Z,9.667981
2022-12-18T10:06:49.047Z,9.667983
2022-12-18T10:07:48.948Z,9.667930
2022-12-18T10:08:48.937Z,9.667960
2022-12-18T10:09:48.932Z,9.667895
2022-12-18T10:10:48.957Z,9.667892
2022-12-18T10:11:48.995Z,9.667876
2022-12-18T10:12:48.929Z,9.667783
2022-12-18T10:13:48.896Z,9.667913
2022-12-18T10:14:48.906Z,9.667857
2022-12-18T10:15:48.960Z,9.667921
2022-12-18T10:16:48.918Z,9.667951
2022-12-18T10:17:48.914Z,9.667945
2022-12-18T10:18:48.976Z,9.667973
2022-12-18T10:19:48.871Z,9.667913
2022-12-18T10:20:48.847Z,9.667990
2022-12-18T10:21:49.751Z,9.667928
2022-12-18T10:22:48.855Z,9.667909
2022-12-18T10:23:48.861Z,9.667976
2022-12-18T10:24:49.722Z,9.667976
2022-12-18T10:25:48.801Z,9.667963
2022-12-18T10:26:48.787Z,9.667979
2022-12-18T10:27:48.944Z,9.668010
2022-12-18T10:28:49.811Z,9.668006
2022-12-18T10:29:48.792Z,9.668028
2022-12-18T10:30:48.809Z,9.668030
2022-12-18T10:31:48.790Z,9.668016
2022-12-18T10:32:48.791Z,9.668007
2022-12-18T10:33:48.789Z,9.667983
2022-12-18T10:34:48.754Z,9.668003
2022-12-18T10:35:48.738Z,9.668025
2022-12-18T10:36:48.732Z,9.668017
2022-12-18T10:37:48.721Z,9.668015
2022-12-18T10:38:48.753Z,9.667970
2022-12-18T10:39:48.709Z,9.667990
2022-12-18T10:40:48.709Z,9.667991
2022-12-18T10:41:48.687Z,9.667952
2022-12-18T10:42:48.700Z,9.667980
2022-12-18T10:43:48.778Z,9.668000
2022-12-18T10:44:48.691Z,9.668001
2022-12-18T10:45:48.665Z,9.667978
2022-12-18T10:46:48.654Z,9.668022
2022-12-18T10:47:48.651Z,9.668048
2022-12-18T10:48:48.676Z,9.668027
2022-12-18T10:49:48.664Z,9.668018
2022-12-18T10:51:13.623Z,9.668021
2022-12-18T10:51:50.613Z,9.668016
2022-12-18T10:52:48.610Z,9.668008
2022-12-18T10:53:49.175Z,9.668037
2022-12-18T10:54:48.641Z,9.667994
2022-12-18T10:55:48.585Z,9.668041
2022-12-18T10:56:48.586Z,9.668058
2022-12-18T10:57:48.567Z,9.668038
2022-12-18T10:58:48.560Z,9.668023
2022-12-18T10:59:48.651Z,9.668010
2022-12-18T11:00:48.607Z,9.668035
2022-12-18T11:01:48.728Z,9.668060
2022-12-18T11:02:48.682Z,9.668047
2022-12-18T11:03:48.601Z,9.668062
2022-12-18T11:04:48.539Z,9.668056
2022-12-18T11:05:48.537Z,9.668010
2022-12-18T11:06:48.523Z,9.668069
2022-12-18T11:07:48.489Z,9.668041
2022-12-18T11:08:48.498Z,9.668056
2022-12-18T11:09:48.488Z,9.668037
2022-12-18T11:10:48.484Z,9.668039
2022-12-18T11:11:48.467Z,9.668036
2022-12-18T11:12:48.467Z,9.668042
2022-12-18T11:13:48.470Z,9.668085
2022-12-18T11:14:48.436Z,9.668036
2022-12-18T11:15:48.589Z,9.668042
2022-12-18T11:17:23.869Z,9.668057
2022-12-18T11:17:50.465Z,9.668049
2022-12-18T11:18:48.412Z,9.668058
2022-12-18T11:19:48.410Z,9.668063
2022-12-18T11:20:48.406Z,9.668041
2022-12-18T11:21:48.450Z,9.668050
2022-12-18T11:22:48.382Z,9.668080
2022-12-18T11:23:48.375Z,9.668088
2022-12-18T11:25:08.369Z,9.668101
2022-12-18T11:25:50.340Z,9.668062
2022-12-18T11:26:48.359Z,9.668079
2022-12-18T11:27:48.368Z,9.668092
2022-12-18T11:28:48.328Z,9.668043
2022-12-18T11:29:48.332Z,9.668045
2022-12-18T11:30:48.355Z,9.668027
2022-12-18T11:31:48.497Z,9.668035
2022-12-18T11:32:48.319Z,9.668029
2022-12-18T11:34:11.841Z,9.668004
2022-12-18T11:34:53.553Z,9.668016
2022-12-18T11:35:49.285Z,9.668021
2022-12-18T11:36:48.264Z,9.668032
2022-12-18T11:37:48.267Z,9.668047
2022-12-18T11:38:48.272Z,9.668037
2022-12-18T11:39:48.285Z,9.668039
2022-12-18T11:40:48.269Z,9.668007
2022-12-18T11:41:48.274Z,9.668037
2022-12-18T11:42:48.239Z,9.668001
2022-12-18T11:43:48.227Z,9.667999
2022-12-18T11:44:48.276Z,9.668011
2022-12-18T11:45:48.204Z,9.668018
2022-12-18T11:46:48.215Z,9.668021
2022-12-18T11:47:48.275Z,9.668043
2022-12-18T11:48:48.217Z,9.668037
2022-12-18T11:49:48.204Z,9.668019
2022-12-18T11:50:48.178Z,9.668050
2022-12-18T11:51:48.155Z,9.668028
2022-12-18T11:52:52.793Z,9.668032
2022-12-18T11:53:49.277Z,9.668043
2022-12-18T11:54:48.144Z,9.668064
2022-12-18T11:55:48.139Z,9.668048
2022-12-18T11:56:48.128Z,9.668026
2022-12-18T11:57:48.134Z,9.668016
2022-12-18T11:58:48.127Z,9.668034
2022-12-18T11:59:48.160Z,9.668066
2022-12-18T12:00:48.172Z,9.668007
2022-12-18T12:01:48.175Z,9.668030